createdAt,value
2019-05-19T00:00:40.104Z,7.03
2019-05-19T00:03:08.556Z,6.37
2019-05-19T00:05:37.080Z,7.57
2019-05-19T00:08:05.566Z,8.73
2019-05-19T00:10:34.437Z,8.50
2019-05-19T00:13:02.846Z,7.93
2019-05-19T00:15:31.341Z,9.27
2019-05-19T00:17:59.771Z,7.00
2019-05-19T00:20:28.233Z,8.50
2019-05-19T00:22:56.670Z,9.03
2019-05-19T00:25:25.260Z,9.10
2019-05-19T00:27:53.827Z,9.77
2019-05-19T00:30:22.274Z,8.73
2019-05-19T00:32:50.710Z,12.53
2019-05-19T00:35:19.151Z,12.37
2019-05-19T00:37:47.597Z,13.50
2019-05-19T00:40:16.018Z,13.60
2019-05-19T00:42:44.529Z,14.23
2019-05-19T00:45:13.102Z,12.77
2019-05-19T00:47:41.598Z,15.07
2019-05-19T00:50:10.492Z,12.73
2019-05-19T00:52:39.183Z,14.23
2019-05-19T00:55:07.969Z,12.97
2019-05-19T00:57:37.772Z,13.30
2019-05-19T01:00:08.850Z,13.30
2019-05-19T01:02:37.292Z,15.47
2019-05-19T01:05:07.439Z,11.87
2019-05-19T01:07:36.210Z,10.33
2019-05-19T01:10:06.925Z,10.63
2019-05-19T01:12:35.338Z,11.33
2019-05-19T01:15:05.423Z,10.77
2019-05-19T01:17:33.846Z,10.73
2019-05-19T01:20:02.604Z,13.03
2019-05-19T01:22:31.029Z,10.50
2019-05-19T01:24:59.467Z,11.07
2019-05-19T01:27:27.930Z,11.13
2019-05-19T01:29:56.442Z,10.67
2019-05-19T01:32:24.898Z,10.67
2019-05-19T01:37:22.914Z,11.70
2019-05-19T01:39:51.364Z,12.20
2019-05-19T01:42:19.872Z,10.17
2019-05-19T01:44:48.324Z,11.40
2019-05-19T01:47:16.763Z,10.57
2019-05-19T01:49:45.202Z,13.40
2019-05-19T01:52:13.702Z,12.60
2019-05-19T01:54:42.170Z,10.43
2019-05-19T01:57:10.637Z,11.53
2019-05-19T01:59:39.118Z,12.40
2019-05-19T02:02:07.570Z,11.17
2019-05-19T02:04:36.008Z,11.93
2019-05-19T02:07:05.607Z,11.33
2019-05-19T02:09:34.068Z,10.50
2019-05-19T02:12:02.582Z,10.07
2019-05-19T02:14:31.048Z,10.53
2019-05-19T02:16:59.558Z,10.87
2019-05-19T02:19:28.015Z,10.70
2019-05-19T02:21:56.471Z,10.93
2019-05-19T02:24:24.919Z,11.33
2019-05-19T02:26:53.375Z,10.43
2019-05-19T02:29:21.963Z,10.80
2019-05-19T02:31:50.492Z,10.00
2019-05-19T02:34:18.930Z,9.63
2019-05-19T02:36:47.464Z,13.03
2019-05-19T02:39:15.916Z,13.20
2019-05-19T02:41:47.496Z,10.20
2019-05-19T02:44:18.338Z,10.93
2019-05-19T02:46:47.333Z,10.07
2019-05-19T02:49:17.060Z,10.37
2019-05-19T02:51:49.192Z,11.20
2019-05-19T02:54:19.634Z,10.43
2019-05-19T02:56:49.230Z,11.30
2019-05-19T02:59:19.122Z,10.20
2019-05-19T03:02:04.267Z,11.13
2019-05-19T03:04:32.716Z,10.53
2019-05-19T03:07:01.174Z,9.77
2019-05-19T03:09:29.617Z,9.93
2019-05-19T03:11:58.084Z,11.13
2019-05-19T03:14:26.763Z,9.37
2019-05-19T03:16:55.280Z,11.17
2019-05-19T03:19:23.709Z,11.87
2019-05-19T03:21:52.191Z,10.07
2019-05-19T03:24:20.714Z,9.77
2019-05-19T03:26:50.013Z,10.50
2019-05-19T03:29:28.959Z,9.33
2019-05-19T03:31:59.042Z,8.80
2019-05-19T03:34:27.601Z,8.53
2019-05-19T03:36:56.100Z,9.30
2019-05-19T03:39:24.609Z,8.93
2019-05-19T03:41:53.105Z,11.40
2019-05-19T03:44:21.637Z,8.87
2019-05-19T03:46:50.110Z,11.40
2019-05-19T03:49:18.599Z,10.57
2019-05-19T03:51:47.140Z,9.27
2019-05-19T03:54:15.681Z,9.23
2019-05-19T03:56:44.166Z,8.53
2019-05-19T03:59:12.681Z,9.10
2019-05-19T04:01:41.165Z,8.77
2019-05-19T04:04:09.624Z,8.50
2019-05-19T04:06:38.437Z,8.00
2019-05-19T04:09:07.479Z,17.07
2019-05-19T04:11:35.925Z,8.57
2019-05-19T04:14:04.449Z,10.07
2019-05-19T04:16:32.896Z,8.43
2019-05-19T04:19:01.394Z,8.90
2019-05-19T04:21:38.869Z,8.37
2019-05-19T04:24:00.008Z,8.67
2019-05-19T04:26:28.433Z,8.53
2019-05-19T04:28:56.883Z,8.33
2019-05-19T04:31:25.336Z,8.80
2019-05-19T04:33:53.778Z,9.13
2019-05-19T04:36:22.219Z,9.47
2019-05-19T04:38:50.924Z,10.10
2019-05-19T04:41:22.021Z,9.00
2019-05-19T04:43:50.502Z,9.60
2019-05-19T04:46:18.955Z,8.93
2019-05-19T04:48:47.711Z,8.17
2019-05-19T04:51:16.156Z,9.67
2019-05-19T04:53:44.652Z,8.10
2019-05-19T04:56:13.170Z,8.40
2019-05-19T04:58:41.746Z,8.57
2019-05-19T05:01:10.253Z,9.33
2019-05-19T05:03:38.695Z,10.87
2019-05-19T05:06:07.247Z,9.10
2019-05-19T05:08:35.683Z,9.20
2019-05-19T05:11:04.141Z,9.80
2019-05-19T05:13:32.591Z,9.17
2019-05-19T05:16:01.039Z,9.33
2019-05-19T05:18:29.517Z,9.83
2019-05-19T05:20:58.105Z,9.80
2019-05-19T05:23:26.567Z,8.97
2019-05-19T05:25:55.025Z,9.60
2019-05-19T05:28:23.468Z,10.27
2019-05-19T05:30:51.940Z,9.13
2019-05-19T05:33:20.396Z,11.80
2019-05-19T05:35:48.877Z,16.27
2019-05-19T05:38:17.373Z,10.00
2019-05-19T05:40:46.695Z,9.23
2019-05-19T05:43:15.168Z,8.93
2019-05-19T05:45:43.706Z,9.30
2019-05-19T05:48:12.146Z,10.00
2019-05-19T05:50:40.628Z,8.90
2019-05-19T05:53:09.128Z,10.63
2019-05-19T05:55:37.603Z,13.62
2019-05-19T05:58:06.045Z,10.00
2019-05-19T06:00:34.636Z,12.63
2019-05-19T06:03:04.656Z,10.00
2019-05-19T06:05:33.204Z,9.00
2019-05-19T06:08:01.718Z,9.17
2019-05-19T06:10:30.247Z,9.73
2019-05-19T06:12:58.751Z,10.47
2019-05-19T06:15:27.205Z,10.03
2019-05-19T06:17:55.647Z,10.00
2019-05-19T06:20:24.106Z,10.70
2019-05-19T06:22:57.033Z,9.95
2019-05-19T06:25:22.895Z,9.10
2019-05-19T06:27:51.393Z,9.63
2019-05-19T06:30:20.124Z,11.88
2019-05-19T06:32:56.226Z,10.00
2019-05-19T06:35:24.751Z,9.75
2019-05-19T06:37:53.221Z,9.63
2019-05-19T06:40:21.768Z,8.90
2019-05-19T06:42:50.203Z,9.53
2019-05-19T06:45:18.783Z,9.63
2019-05-19T06:47:47.316Z,9.73
2019-05-19T06:50:16.140Z,10.63
2019-05-19T06:52:44.572Z,11.12
2019-05-19T06:55:13.226Z,10.48
2019-05-19T06:57:41.742Z,9.43
2019-05-19T07:00:11.053Z,12.20
2019-05-19T07:02:39.525Z,9.13
2019-05-19T07:05:08.239Z,10.23
2019-05-19T07:07:36.688Z,13.48
2019-05-19T07:10:06.774Z,9.67
2019-05-19T07:12:35.219Z,8.73
2019-05-19T07:15:04.708Z,9.10
2019-05-19T07:17:33.148Z,9.03
2019-05-19T07:20:01.746Z,9.23
2019-05-19T07:22:30.195Z,8.50
2019-05-19T07:24:58.667Z,9.50
2019-05-19T07:27:27.112Z,8.80
2019-05-19T07:29:55.604Z,8.73
2019-05-19T07:32:24.807Z,8.70
2019-05-19T07:34:53.225Z,8.25
2019-05-19T07:37:21.654Z,7.92
2019-05-19T07:39:51.867Z,7.40
2019-05-19T07:42:20.358Z,6.00
2019-05-19T07:44:48.819Z,7.00
2019-05-19T07:47:17.290Z,7.30
2019-05-19T07:49:45.720Z,5.78
2019-05-19T07:52:14.205Z,6.30
2019-05-19T07:54:42.634Z,6.47
2019-05-19T07:57:11.088Z,6.85
2019-05-19T07:59:39.499Z,9.70
2019-05-19T08:02:07.934Z,5.67
2019-05-19T08:04:36.351Z,8.75
2019-05-19T08:07:05.032Z,6.83
2019-05-19T08:09:33.461Z,6.50
2019-05-19T08:12:01.902Z,7.20
2019-05-19T08:14:30.327Z,5.58
2019-05-19T08:16:58.757Z,5.45
2019-05-19T08:19:29.452Z,5.78
2019-05-19T08:21:57.507Z,6.05
2019-05-19T08:24:26.081Z,5.47
2019-05-19T08:26:54.575Z,5.60
2019-05-19T08:29:23.011Z,5.62
2019-05-19T08:31:51.534Z,5.50
2019-05-19T08:34:20.012Z,5.40
2019-05-19T08:36:48.453Z,5.05
2019-05-19T08:39:16.881Z,5.20
2019-05-19T08:41:45.314Z,4.15
2019-05-19T08:44:14.730Z,4.33
2019-05-19T08:46:44.688Z,4.22
2019-05-19T08:49:13.169Z,4.28
2019-05-19T08:51:41.869Z,4.05
2019-05-19T08:54:14.984Z,4.33
2019-05-19T08:56:40.814Z,4.00
2019-05-19T08:59:09.280Z,4.65
2019-05-19T09:01:42.216Z,3.72
2019-05-19T09:04:11.765Z,4.67
2019-05-19T09:06:42.326Z,4.33
2019-05-19T09:09:13.109Z,3.80
2019-05-19T09:11:42.068Z,4.12
2019-05-19T09:14:10.912Z,4.55
2019-05-19T09:16:41.349Z,4.10
2019-05-19T09:19:09.498Z,4.00
2019-05-19T09:21:37.935Z,7.40
2019-05-19T09:24:06.489Z,5.62
2019-05-19T09:26:35.035Z,4.25
2019-05-19T09:29:03.730Z,4.12
2019-05-19T09:31:32.255Z,4.47
2019-05-19T09:34:00.683Z,4.50
2019-05-19T09:36:29.115Z,4.75
2019-05-19T09:38:57.628Z,4.33
2019-05-19T09:41:26.297Z,4.62
2019-05-19T09:43:54.861Z,6.70
2019-05-19T09:46:23.432Z,3.90
2019-05-19T09:49:09.969Z,4.90
2019-05-19T09:51:41.165Z,4.28
2019-05-19T09:54:11.196Z,3.92
2019-05-19T09:56:39.617Z,4.35
2019-05-19T09:59:08.038Z,3.67
2019-05-19T10:01:36.674Z,3.85
2019-05-19T10:04:14.800Z,3.90
2019-05-19T10:06:43.480Z,3.90
2019-05-19T10:09:35.037Z,3.83
2019-05-19T10:12:08.139Z,4.78
2019-05-19T10:14:36.579Z,4.28
2019-05-19T10:17:04.992Z,3.17
2019-05-19T10:19:33.470Z,3.42
2019-05-19T10:22:01.890Z,3.92
2019-05-19T10:24:30.339Z,3.00
2019-05-19T10:26:58.753Z,3.62
2019-05-19T10:29:27.233Z,3.35
2019-05-19T10:31:55.693Z,2.95
2019-05-19T10:34:24.124Z,2.95
2019-05-19T10:36:52.558Z,2.45
2019-05-19T10:39:21.008Z,2.70
2019-05-19T10:41:49.429Z,2.80
2019-05-19T10:44:17.863Z,3.12
2019-05-19T10:46:46.290Z,2.70
2019-05-19T10:49:14.730Z,2.90
2019-05-19T10:51:43.155Z,2.80
2019-05-19T10:54:11.601Z,3.50
2019-05-19T10:56:40.015Z,3.27
2019-05-19T10:59:08.460Z,3.90
2019-05-19T11:01:36.967Z,3.50
2019-05-19T11:04:05.412Z,3.75
2019-05-19T11:06:33.846Z,4.28
2019-05-19T11:09:02.275Z,4.15
2019-05-19T11:11:30.710Z,4.03
2019-05-19T11:13:59.145Z,4.72
2019-05-19T11:16:27.574Z,3.83
2019-05-19T11:18:56.010Z,3.77
2019-05-19T11:21:24.425Z,3.37
2019-05-19T11:23:52.893Z,3.60
2019-05-19T11:26:21.306Z,3.75
2019-05-19T11:28:49.737Z,3.50
2019-05-19T11:31:18.153Z,4.45
2019-05-19T11:33:46.595Z,4.10
2019-05-19T11:36:15.014Z,3.87
2019-05-19T11:38:43.434Z,3.87
2019-05-19T11:41:11.870Z,3.72
2019-05-19T11:43:40.305Z,3.58
2019-05-19T11:46:08.721Z,4.05
2019-05-19T11:48:37.159Z,4.33
2019-05-19T11:51:05.582Z,3.80
2019-05-19T11:53:34.015Z,3.70
2019-05-19T11:56:06.542Z,4.33
2019-05-19T11:58:32.711Z,4.12
2019-05-19T12:01:01.149Z,4.25
2019-05-19T12:03:29.569Z,4.60
2019-05-19T12:05:58.004Z,4.15
2019-05-19T12:08:26.429Z,4.35
2019-05-19T12:10:54.883Z,4.42
2019-05-19T12:13:23.303Z,4.12
2019-05-19T12:15:51.755Z,3.85
2019-05-19T12:18:20.178Z,3.77
2019-05-19T12:20:48.612Z,3.37
2019-05-19T12:23:17.126Z,3.90
2019-05-19T12:25:45.558Z,4.10
2019-05-19T12:28:14.007Z,3.77
2019-05-19T12:30:42.445Z,4.10
2019-05-19T12:33:10.856Z,3.65
2019-05-19T12:35:39.347Z,4.30
2019-05-19T12:38:07.819Z,4.03
2019-05-19T12:40:36.321Z,3.80
2019-05-19T12:43:04.849Z,4.20
2019-05-19T12:45:33.434Z,4.40
2019-05-19T12:48:01.979Z,4.03
2019-05-19T12:50:30.403Z,3.98
2019-05-19T12:52:58.902Z,4.08
2019-05-19T12:55:27.407Z,3.92
2019-05-19T12:57:55.853Z,4.60
2019-05-19T13:00:24.361Z,4.95
2019-05-19T13:02:52.869Z,5.97
2019-05-19T13:05:21.349Z,3.90
2019-05-19T13:07:49.946Z,4.95
2019-05-19T13:10:18.529Z,5.10
2019-05-19T13:12:47.163Z,4.50
2019-05-19T13:15:15.930Z,4.67
2019-05-19T13:17:44.394Z,4.30
2019-05-19T13:20:13.452Z,4.80
2019-05-19T13:22:42.394Z,4.15
2019-05-19T13:25:11.003Z,4.53
2019-05-19T13:27:39.435Z,4.80
2019-05-19T13:30:08.063Z,4.65
2019-05-19T13:32:36.487Z,4.58
2019-05-19T13:35:06.467Z,4.15
2019-05-19T13:37:34.992Z,3.52
2019-05-19T13:40:04.765Z,4.22
2019-05-19T13:42:33.256Z,4.40
2019-05-19T13:45:01.677Z,4.70
2019-05-19T13:47:30.159Z,4.65
2019-05-19T13:49:58.582Z,4.40
2019-05-19T13:52:27.087Z,4.50
2019-05-19T13:54:55.519Z,4.78
2019-05-19T13:57:23.943Z,4.35
2019-05-19T13:59:52.383Z,4.40
2019-05-19T14:02:21.091Z,7.67
2019-05-19T14:04:49.519Z,5.25
2019-05-19T14:07:17.989Z,9.13
2019-05-19T14:09:46.452Z,4.85
2019-05-19T14:12:14.980Z,5.53
2019-05-19T14:14:43.852Z,5.45
2019-05-19T14:17:12.376Z,5.00
2019-05-19T14:19:40.801Z,5.10
2019-05-19T14:22:09.268Z,5.35
2019-05-19T14:24:37.859Z,5.15
2019-05-19T14:27:06.300Z,3.77
2019-05-19T14:29:34.711Z,4.03
2019-05-19T14:32:03.170Z,3.85
2019-05-19T14:34:31.596Z,3.67
2019-05-19T14:37:00.103Z,3.62
2019-05-19T14:39:28.531Z,4.37
2019-05-19T14:41:58.653Z,4.35
2019-05-19T14:44:27.124Z,3.92
2019-05-19T14:46:55.556Z,5.05
2019-05-19T14:49:23.983Z,4.53
2019-05-19T14:51:52.424Z,5.03
2019-05-19T14:54:20.848Z,5.12
2019-05-19T14:56:49.271Z,5.60
2019-05-19T14:59:17.687Z,5.80
2019-05-19T15:01:46.159Z,5.37
2019-05-19T15:04:14.830Z,5.42
2019-05-19T15:06:43.481Z,5.60
2019-05-19T15:09:12.072Z,6.12
2019-05-19T15:11:40.502Z,5.25
2019-05-19T15:14:08.930Z,5.62
2019-05-19T15:16:37.369Z,5.28
2019-05-19T15:19:05.788Z,4.92
2019-05-19T15:21:34.221Z,5.03
2019-05-19T15:24:02.685Z,5.30
2019-05-19T15:26:31.125Z,4.72
2019-05-19T15:28:59.634Z,5.10
2019-05-19T15:31:28.332Z,5.62
2019-05-19T15:33:56.767Z,4.47
2019-05-19T15:36:25.201Z,4.75
2019-05-19T15:38:53.642Z,6.17
2019-05-19T15:41:22.159Z,4.62
2019-05-19T15:43:50.623Z,5.10
2019-05-19T15:46:19.051Z,5.05
2019-05-19T15:48:47.483Z,5.72
2019-05-19T15:51:28.148Z,6.10
2019-05-19T15:53:46.087Z,6.00
2019-05-19T15:56:14.526Z,6.05
2019-05-19T15:58:42.951Z,6.65
2019-05-19T16:01:11.377Z,6.70
2019-05-19T16:03:39.826Z,6.80
2019-05-19T16:06:08.250Z,6.15
2019-05-19T16:08:36.687Z,5.87
2019-05-19T16:11:05.111Z,5.42
2019-05-19T16:13:33.824Z,6.25
2019-05-19T16:16:02.327Z,5.35
2019-05-19T16:18:30.788Z,5.60
2019-05-19T16:20:59.343Z,5.92
2019-05-19T16:23:27.785Z,5.60
2019-05-19T16:25:56.210Z,5.35
2019-05-19T16:28:30.631Z,5.47
2019-05-19T16:30:54.793Z,6.12
2019-05-19T16:33:23.243Z,5.87
2019-05-19T16:35:51.664Z,5.45
2019-05-19T16:38:20.112Z,5.95
2019-05-19T16:40:48.536Z,5.72
2019-05-19T16:43:16.970Z,6.55
2019-05-19T16:45:46.839Z,5.78
2019-05-19T16:48:15.642Z,6.00
2019-05-19T16:50:44.295Z,6.05
2019-05-19T16:53:12.762Z,5.70
2019-05-19T16:55:41.179Z,5.65
2019-05-19T16:58:20.718Z,5.55
2019-05-19T17:00:39.773Z,6.05
2019-05-19T17:03:08.217Z,4.83
2019-05-19T17:05:36.847Z,5.70
2019-05-19T17:08:05.398Z,6.60
2019-05-19T17:10:33.826Z,5.70
2019-05-19T17:13:02.313Z,6.28
2019-05-19T17:15:30.751Z,5.75
2019-05-19T17:18:00.427Z,5.30
2019-05-19T17:20:30.995Z,5.65
2019-05-19T17:22:59.010Z,5.70
2019-05-19T17:25:27.451Z,4.80
2019-05-19T17:27:55.870Z,5.35
2019-05-19T17:30:24.582Z,5.87
2019-05-19T17:32:53.001Z,6.33
2019-05-19T17:35:21.439Z,5.80
2019-05-19T17:37:49.876Z,6.05
2019-05-19T17:40:18.754Z,6.72
2019-05-19T17:42:47.197Z,6.12
2019-05-19T17:45:16.027Z,6.60
2019-05-19T17:47:44.458Z,6.58
2019-05-19T17:50:13.323Z,7.33
2019-05-19T17:52:41.753Z,8.03
2019-05-19T17:55:10.650Z,11.25
2019-05-19T17:57:39.612Z,7.42
2019-05-19T18:00:10.366Z,6.85
2019-05-19T18:02:38.937Z,7.37
2019-05-19T18:05:07.916Z,8.23
2019-05-19T18:07:36.451Z,7.53
2019-05-19T18:10:07.043Z,7.05
2019-05-19T18:12:35.469Z,8.50
2019-05-19T18:15:05.874Z,8.05
2019-05-19T18:17:34.293Z,8.03
2019-05-19T18:20:03.305Z,7.75
2019-05-19T18:22:31.719Z,7.55
2019-05-19T18:25:00.155Z,7.60
2019-05-19T18:27:28.622Z,8.48
2019-05-19T18:29:57.055Z,7.40
2019-05-19T18:32:25.543Z,8.43
2019-05-19T18:34:53.996Z,8.85
2019-05-19T18:37:22.469Z,8.70
2019-05-19T18:39:50.958Z,8.13
2019-05-19T18:42:20.624Z,8.10
2019-05-19T18:44:49.090Z,8.03
2019-05-19T18:47:17.947Z,8.55
2019-05-19T18:49:46.392Z,7.95
2019-05-19T18:52:14.915Z,7.10
2019-05-19T18:54:43.356Z,7.28
2019-05-19T18:57:11.779Z,8.08
2019-05-19T18:59:47.441Z,7.75
2019-05-19T19:02:11.108Z,8.35
2019-05-19T19:04:39.565Z,8.50
2019-05-19T19:07:07.988Z,8.00
2019-05-19T19:09:36.451Z,8.73
2019-05-19T19:12:04.960Z,7.72
2019-05-19T19:14:33.413Z,8.08
2019-05-19T19:17:01.858Z,7.72
2019-05-19T19:19:30.753Z,7.67
2019-05-19T19:21:59.191Z,8.15
2019-05-19T19:24:27.629Z,7.97
2019-05-19T19:26:56.063Z,8.85
2019-05-19T19:29:24.498Z,8.88
2019-05-19T19:31:52.929Z,7.85
2019-05-19T19:34:21.353Z,8.85
2019-05-19T19:36:49.838Z,8.13
2019-05-19T19:39:18.334Z,8.13
2019-05-19T19:41:46.763Z,9.20
2019-05-19T19:44:15.176Z,8.55
2019-05-19T19:46:43.869Z,8.25
2019-05-19T19:49:12.288Z,8.33
2019-05-19T19:51:40.724Z,7.80
2019-05-19T19:54:09.143Z,7.92
2019-05-19T19:56:37.592Z,8.23
2019-05-19T19:59:06.002Z,8.33
2019-05-19T20:01:34.440Z,8.48
2019-05-19T20:04:02.953Z,7.90
2019-05-19T20:06:31.481Z,7.55
2019-05-19T20:08:59.963Z,7.58
2019-05-19T20:11:28.393Z,7.20
2019-05-19T20:13:56.821Z,7.75
2019-05-19T20:16:25.625Z,7.55
2019-05-19T20:18:54.059Z,7.80
2019-05-19T20:21:22.491Z,7.95
2019-05-19T20:23:50.935Z,15.78
2019-05-19T20:26:19.430Z,8.65
2019-05-19T20:28:47.855Z,7.17
2019-05-19T20:31:16.304Z,7.28
2019-05-19T20:33:44.712Z,7.80
2019-05-19T20:36:13.149Z,7.28
2019-05-19T20:38:41.594Z,6.92
2019-05-19T20:41:10.108Z,6.75
2019-05-19T20:43:38.568Z,6.95
2019-05-19T20:46:07.063Z,7.05
2019-05-19T20:48:35.493Z,7.12
2019-05-19T20:51:24.677Z,6.62
2019-05-19T20:53:53.493Z,7.03
2019-05-19T20:56:21.998Z,6.80
2019-05-19T20:58:50.461Z,7.17
2019-05-19T21:01:18.882Z,7.70
2019-05-19T21:03:47.306Z,7.25
2019-05-19T21:06:15.742Z,8.23
2019-05-19T21:08:44.164Z,7.45
2019-05-19T21:11:12.606Z,7.53
2019-05-19T21:13:41.018Z,7.77
2019-05-19T21:16:09.430Z,8.90
2019-05-19T21:18:37.894Z,8.90
2019-05-19T21:21:06.326Z,9.43
2019-05-19T21:23:34.756Z,9.47
2019-05-19T21:26:03.252Z,9.03
2019-05-19T21:28:31.738Z,10.10
2019-05-19T21:31:05.676Z,10.10
2019-05-19T21:33:30.363Z,9.45
2019-05-19T21:35:58.841Z,10.50
2019-05-19T21:38:27.524Z,9.45
2019-05-19T21:40:55.973Z,9.55
2019-05-19T21:43:24.419Z,9.58
2019-05-19T21:45:52.866Z,9.73
2019-05-19T21:48:22.950Z,7.45
2019-05-19T21:50:51.604Z,7.50
2019-05-19T21:53:20.027Z,6.65
2019-05-19T21:55:48.461Z,6.72
2019-05-19T21:58:19.668Z,5.73
2019-05-19T22:00:48.323Z,9.03
2019-05-19T22:03:16.822Z,7.37
2019-05-19T22:05:53.193Z,7.05
2019-05-19T22:08:17.050Z,7.53
2019-05-19T22:10:45.675Z,6.95
2019-05-19T22:13:14.191Z,9.00
2019-05-19T22:15:42.700Z,9.10
2019-05-19T22:18:11.343Z,9.25
2019-05-19T22:20:39.809Z,9.20
2019-05-19T22:23:08.301Z,9.83
2019-05-19T22:25:36.717Z,8.40
2019-05-19T22:28:07.948Z,9.98
2019-05-19T22:30:36.381Z,12.58
2019-05-19T22:33:04.819Z,11.60
2019-05-19T22:35:33.266Z,11.13
2019-05-19T22:38:03.240Z,13.40
2019-05-19T22:40:31.933Z,11.03
2019-05-19T22:43:00.442Z,10.48
2019-05-19T22:45:29.068Z,11.30
2019-05-19T22:47:57.899Z,11.60
2019-05-19T22:50:26.326Z,11.40
2019-05-19T22:52:54.765Z,11.53
2019-05-19T22:55:23.279Z,11.83
2019-05-19T22:57:52.115Z,11.10
2019-05-19T23:00:21.138Z,11.63
2019-05-19T23:02:49.813Z,11.43
2019-05-19T23:05:18.308Z,11.40
2019-05-19T23:07:46.730Z,12.17
2019-05-19T23:10:16.264Z,11.47
2019-05-19T23:12:44.828Z,11.90
2019-05-19T23:15:15.388Z,12.07
2019-05-19T23:17:45.681Z,12.30
2019-05-19T23:20:23.559Z,11.40
2019-05-19T23:22:54.049Z,11.97
2019-05-19T23:25:26.028Z,10.82
2019-05-19T23:27:54.704Z,12.17
2019-05-19T23:30:23.406Z,11.80
2019-05-19T23:32:51.857Z,11.27
2019-05-19T23:35:20.302Z,12.53
2019-05-19T23:37:48.719Z,11.60
2019-05-19T23:40:17.175Z,12.33
2019-05-19T23:42:45.604Z,11.83
2019-05-19T23:45:14.391Z,12.23
2019-05-19T23:47:42.803Z,11.93
2019-05-19T23:50:11.390Z,12.30
2019-05-19T23:52:39.825Z,11.63
2019-05-19T23:55:08.527Z,12.53
2019-05-19T23:57:37.011Z,12.73
